createdAt,value
2022-10-14T00:01:04.465Z,13.33
2022-10-14T00:03:31.622Z,13.21
2022-10-14T00:05:58.353Z,13.12
2022-10-14T00:08:26.340Z,13.19
2022-10-14T00:10:53.017Z,13.25
2022-10-14T00:13:19.762Z,13.27
2022-10-14T00:15:46.704Z,13.18
2022-10-14T00:18:13.743Z,13.20
2022-10-14T00:20:40.472Z,13.26
2022-10-14T00:23:07.218Z,13.24
2022-10-14T00:25:37.910Z,13.26
2022-10-14T00:28:04.758Z,13.34
2022-10-14T00:30:31.561Z,13.40
2022-10-14T00:32:58.350Z,13.44
2022-10-14T00:35:25.195Z,13.41
2022-10-14T00:37:51.885Z,13.39
2022-10-14T00:40:18.707Z,13.40
2022-10-14T00:42:45.422Z,13.42
2022-10-14T00:45:16.021Z,13.45
2022-10-14T00:47:44.065Z,13.41
2022-10-14T00:50:14.085Z,13.43
2022-10-14T00:52:41.102Z,13.46
2022-10-14T00:55:13.333Z,13.41
2022-10-14T00:57:40.473Z,13.39
2022-10-14T01:00:13.677Z,13.37
2022-10-14T01:02:40.710Z,13.40
2022-10-14T01:05:09.717Z,13.41
2022-10-14T01:07:46.129Z,13.43
2022-10-14T01:10:31.078Z,13.31
2022-10-14T01:13:31.164Z,13.27
2022-10-14T01:15:57.813Z,13.31
2022-10-14T01:18:47.768Z,13.38
2022-10-14T01:21:31.038Z,13.39
2022-10-14T01:24:25.748Z,13.45
2022-10-14T01:27:40.953Z,13.45
2022-10-14T01:30:11.900Z,13.44
2022-10-14T01:33:23.516Z,13.38
2022-10-14T01:36:02.778Z,13.38
2022-10-14T01:38:58.653Z,13.33
2022-10-14T01:41:29.277Z,13.37
2022-10-14T01:44:03.542Z,13.37
2022-10-14T01:46:32.530Z,13.31
2022-10-14T01:49:04.869Z,13.20
2022-10-14T01:51:42.398Z,13.21
2022-10-14T01:54:14.394Z,13.24
2022-10-14T01:56:45.279Z,13.21
2022-10-14T01:59:16.192Z,13.23
2022-10-14T02:01:43.011Z,13.24
2022-10-14T02:04:16.082Z,13.23
2022-10-14T02:06:47.440Z,13.23
2022-10-14T02:09:24.650Z,13.24
2022-10-14T02:12:25.398Z,13.28
2022-10-14T02:15:26.313Z,13.29
2022-10-14T02:18:00.643Z,13.31
2022-10-14T02:20:46.476Z,13.26
2022-10-14T02:23:21.525Z,13.25
2022-10-14T02:25:50.182Z,13.23
2022-10-14T02:28:21.868Z,13.12
2022-10-14T02:30:57.801Z,13.07
2022-10-14T02:33:30.862Z,13.13
2022-10-14T02:35:57.950Z,13.13
2022-10-14T02:38:25.691Z,13.17
2022-10-14T02:40:52.899Z,13.08
2022-10-14T02:43:19.758Z,13.12
2022-10-14T02:45:48.817Z,13.20
2022-10-14T02:48:15.524Z,13.21
2022-10-14T02:50:42.443Z,13.17
2022-10-14T02:53:14.562Z,13.15
2022-10-14T02:55:41.243Z,13.21
2022-10-14T02:58:08.147Z,13.15
2022-10-14T03:00:35.439Z,13.09
2022-10-14T03:03:02.194Z,13.18
2022-10-14T03:05:29.014Z,13.20
2022-10-14T03:07:55.766Z,13.19
2022-10-14T03:10:22.504Z,13.19
2022-10-14T03:12:49.238Z,13.21
2022-10-14T03:15:16.635Z,13.20
2022-10-14T03:17:43.282Z,13.14
2022-10-14T03:20:10.705Z,13.12
2022-10-14T03:22:37.368Z,13.15
2022-10-14T03:25:04.299Z,13.14
2022-10-14T03:27:31.053Z,13.07
2022-10-14T03:29:57.763Z,13.02
2022-10-14T03:32:24.696Z,13.07
2022-10-14T03:34:51.418Z,12.97
2022-10-14T03:37:18.122Z,12.99
2022-10-14T03:39:44.894Z,12.89
2022-10-14T03:42:11.609Z,12.95
2022-10-14T03:44:38.301Z,13.05
2022-10-14T03:47:05.104Z,13.08
2022-10-14T03:49:31.807Z,13.04
2022-10-14T03:51:59.159Z,13.11
2022-10-14T03:54:25.985Z,13.11
2022-10-14T03:56:52.691Z,13.19
2022-10-14T03:59:19.402Z,13.20
2022-10-14T04:01:46.088Z,13.19
2022-10-14T04:04:12.803Z,13.13
2022-10-14T04:06:39.531Z,13.15
2022-10-14T04:09:06.251Z,13.19
2022-10-14T04:11:33.087Z,13.21
2022-10-14T04:14:00.818Z,13.22
2022-10-14T04:16:27.761Z,13.27
2022-10-14T04:18:54.564Z,13.24
2022-10-14T04:21:21.301Z,13.22
2022-10-14T04:23:48.168Z,13.23
2022-10-14T04:26:14.930Z,13.24
2022-10-14T04:28:41.724Z,13.20
2022-10-14T04:31:08.679Z,13.24
2022-10-14T04:33:35.541Z,13.24
2022-10-14T04:36:05.487Z,13.27
2022-10-14T04:38:32.702Z,13.31
2022-10-14T04:40:59.510Z,13.34
2022-10-14T04:43:26.241Z,13.31
2022-10-14T04:45:53.036Z,13.34
2022-10-14T04:48:19.772Z,13.36
2022-10-14T04:50:46.449Z,13.31
2022-10-14T04:53:14.074Z,13.28
2022-10-14T04:55:41.521Z,13.29
2022-10-14T04:58:08.243Z,13.33
2022-10-14T05:00:34.950Z,13.30
2022-10-14T05:03:01.770Z,13.26
2022-10-14T05:05:28.440Z,13.23
2022-10-14T05:07:55.221Z,13.25
2022-10-14T05:10:22.361Z,13.20
2022-10-14T05:12:49.361Z,13.19
2022-10-14T05:15:16.503Z,13.26
2022-10-14T05:17:44.505Z,13.30
2022-10-14T05:20:12.414Z,13.31
2022-10-14T05:22:39.417Z,13.37
2022-10-14T05:25:06.794Z,13.34
2022-10-14T05:27:33.531Z,13.26
2022-10-14T05:30:00.595Z,13.21
2022-10-14T05:32:27.276Z,13.25
2022-10-14T05:34:54.026Z,13.21
2022-10-14T05:37:20.738Z,13.25
2022-10-14T05:39:47.577Z,13.31
2022-10-14T05:42:14.289Z,13.39
2022-10-14T05:44:40.993Z,13.39
2022-10-14T05:47:07.836Z,13.36
2022-10-14T05:49:34.485Z,13.33
2022-10-14T05:52:01.527Z,13.33
2022-10-14T05:54:28.238Z,13.34
2022-10-14T05:56:54.924Z,13.38
2022-10-14T05:59:22.365Z,13.38
2022-10-14T06:01:49.095Z,13.41
2022-10-14T06:04:20.453Z,13.46
2022-10-14T06:06:47.447Z,13.46
2022-10-14T06:09:14.661Z,13.44
2022-10-14T06:11:41.410Z,13.45
2022-10-14T06:14:08.596Z,13.54
2022-10-14T06:16:35.582Z,13.57
2022-10-14T06:19:02.272Z,13.58
2022-10-14T06:21:28.923Z,13.63
2022-10-14T06:23:55.792Z,13.65
2022-10-14T06:26:22.501Z,13.64
2022-10-14T06:28:49.420Z,13.65
2022-10-14T06:31:16.181Z,13.66
2022-10-14T06:33:44.026Z,13.66
2022-10-14T06:36:10.970Z,13.67
2022-10-14T06:38:37.753Z,13.67
2022-10-14T06:41:04.824Z,13.66
2022-10-14T06:43:31.542Z,13.63
2022-10-14T06:45:58.721Z,13.66
2022-10-14T06:48:25.422Z,13.68
2022-10-14T06:50:52.733Z,13.74
2022-10-14T06:53:19.437Z,13.76
2022-10-14T06:55:46.356Z,13.77
2022-10-14T06:58:13.124Z,13.71
2022-10-14T07:00:42.212Z,13.72
2022-10-14T07:03:17.854Z,13.73
2022-10-14T07:05:44.676Z,13.81
2022-10-14T07:08:14.524Z,13.86
2022-10-14T07:10:43.164Z,13.93
2022-10-14T07:13:10.169Z,14.01
2022-10-14T07:15:38.867Z,14.10
2022-10-14T07:18:06.577Z,14.15
2022-10-14T07:20:34.548Z,14.15
2022-10-14T07:23:01.578Z,14.21
2022-10-14T07:25:28.331Z,14.23
2022-10-14T07:27:55.188Z,14.29
2022-10-14T07:30:22.686Z,14.32
2022-10-14T07:32:49.464Z,14.38
2022-10-14T07:35:18.846Z,14.41
2022-10-14T07:37:46.503Z,14.45
2022-10-14T07:40:13.904Z,14.51
2022-10-14T07:42:40.664Z,14.46
2022-10-14T07:45:07.765Z,14.49
2022-10-14T07:47:34.507Z,14.44
2022-10-14T07:50:02.009Z,14.37
2022-10-14T07:52:28.989Z,14.41
2022-10-14T07:54:55.789Z,14.45
2022-10-14T07:57:23.623Z,14.48
2022-10-14T07:59:52.677Z,14.49
2022-10-14T08:02:22.107Z,14.52
2022-10-14T08:04:53.211Z,14.54
2022-10-14T08:07:20.581Z,14.54
2022-10-14T08:09:48.303Z,14.53
2022-10-14T08:12:15.052Z,14.53
2022-10-14T08:14:41.955Z,14.57
2022-10-14T08:17:08.734Z,14.62
2022-10-14T08:19:35.700Z,14.69
2022-10-14T08:22:02.436Z,14.74
2022-10-14T08:24:29.141Z,14.74
2022-10-14T08:26:59.043Z,14.74
2022-10-14T08:29:26.873Z,14.76
2022-10-14T08:31:55.253Z,14.74
2022-10-14T08:34:24.221Z,14.76
2022-10-14T08:36:51.697Z,14.76
2022-10-14T08:39:19.285Z,14.79
2022-10-14T08:42:01.333Z,14.83
2022-10-14T08:44:40.918Z,14.87
2022-10-14T08:47:15.362Z,14.91
2022-10-14T08:49:54.317Z,14.96
2022-10-14T08:52:50.563Z,14.98
2022-10-14T08:55:39.320Z,15.01
2022-10-14T08:58:14.037Z,15.02
2022-10-14T09:00:43.115Z,15.06
2022-10-14T09:03:36.969Z,15.16
2022-10-14T09:06:07.412Z,15.21
2022-10-14T09:08:41.912Z,15.30
2022-10-14T09:11:14.946Z,15.40
2022-10-14T09:14:17.246Z,15.46
2022-10-14T09:16:50.367Z,15.49
2022-10-14T09:19:30.811Z,15.56
2022-10-14T09:22:01.471Z,15.57
2022-10-14T09:24:32.524Z,15.58
2022-10-14T09:27:05.903Z,15.62
2022-10-14T09:29:45.309Z,15.72
2022-10-14T09:32:35.086Z,15.87
2022-10-14T09:35:02.819Z,15.98
2022-10-14T09:37:32.912Z,16.10
2022-10-14T09:40:06.934Z,16.20
2022-10-14T09:42:55.588Z,16.22
2022-10-14T09:45:24.877Z,16.18
2022-10-14T09:47:58.041Z,16.20
2022-10-14T09:50:34.859Z,16.22
2022-10-14T09:53:09.276Z,16.26
2022-10-14T09:55:46.880Z,16.32
2022-10-14T09:58:17.922Z,16.30
2022-10-14T10:00:46.156Z,16.25
2022-10-14T10:03:35.647Z,16.22
2022-10-14T10:06:06.001Z,16.21
2022-10-14T10:08:35.480Z,16.17
2022-10-14T10:11:10.401Z,16.14
2022-10-14T10:13:48.423Z,16.08
2022-10-14T10:16:23.100Z,16.07
2022-10-14T10:18:51.994Z,16.05
2022-10-14T10:21:24.834Z,16.05
2022-10-14T10:23:54.900Z,16.05
2022-10-14T10:26:29.341Z,16.05
2022-10-14T10:28:57.933Z,16.06
2022-10-14T10:31:48.008Z,16.09
2022-10-14T10:34:40.316Z,16.15
2022-10-14T10:37:25.113Z,16.18
2022-10-14T10:40:30.196Z,16.21
2022-10-14T10:43:07.080Z,16.27
2022-10-14T10:45:50.039Z,16.25
2022-10-14T10:48:31.446Z,16.19
2022-10-14T10:51:08.974Z,16.20
2022-10-14T10:53:54.878Z,16.20
2022-10-14T10:56:46.908Z,16.17
2022-10-14T10:59:44.996Z,16.13
2022-10-14T11:02:24.281Z,16.10
2022-10-14T11:05:03.154Z,16.08
2022-10-14T11:08:16.911Z,16.14
2022-10-14T11:11:09.602Z,16.18
2022-10-14T11:13:39.503Z,16.19
2022-10-14T11:16:09.745Z,16.14
2022-10-14T11:18:49.534Z,16.10
2022-10-14T11:21:36.599Z,16.12
2022-10-14T11:24:13.865Z,16.20
2022-10-14T11:26:59.555Z,16.43
2022-10-14T11:29:42.967Z,16.74
2022-10-14T11:32:25.123Z,17.00
2022-10-14T11:35:13.744Z,17.24
2022-10-14T11:37:58.223Z,17.29
2022-10-14T11:40:31.725Z,17.26
2022-10-14T11:43:18.058Z,17.16
2022-10-14T11:46:01.424Z,17.10
2022-10-14T11:48:51.424Z,17.09
2022-10-14T11:51:49.092Z,17.24
2022-10-14T11:54:30.618Z,17.36
2022-10-14T11:57:25.126Z,17.57
2022-10-14T12:00:49.837Z,17.70
2022-10-14T12:03:45.291Z,17.87
2022-10-14T12:06:26.874Z,18.09
2022-10-14T12:08:58.414Z,18.31
2022-10-14T12:11:34.272Z,18.33
2022-10-14T12:14:10.065Z,18.35
2022-10-14T12:16:41.530Z,18.42
2022-10-14T12:19:11.328Z,18.56
2022-10-14T12:21:49.712Z,18.61
2022-10-14T12:24:21.574Z,18.45
2022-10-14T12:26:55.170Z,18.32
2022-10-14T12:29:29.856Z,18.20
2022-10-14T12:32:06.504Z,18.06
2022-10-14T12:34:41.474Z,17.98
2022-10-14T12:37:37.886Z,17.93
2022-10-14T12:40:07.517Z,17.93
2022-10-14T12:42:38.897Z,18.04
2022-10-14T12:45:21.198Z,18.09
2022-10-14T12:48:24.191Z,18.06
2022-10-14T12:51:05.840Z,17.95
2022-10-14T12:53:34.058Z,17.89
2022-10-14T12:56:04.129Z,17.80
2022-10-14T12:58:57.372Z,17.74
2022-10-14T13:01:24.398Z,17.69
2022-10-14T13:03:59.547Z,17.64
2022-10-14T13:06:28.428Z,17.60
2022-10-14T13:09:13.779Z,17.61
2022-10-14T13:12:03.915Z,17.66
2022-10-14T13:14:55.169Z,17.65
2022-10-14T13:17:45.375Z,17.66
2022-10-14T13:20:33.899Z,17.69
2022-10-14T13:23:28.115Z,17.71
2022-10-14T13:26:06.816Z,17.71
2022-10-14T13:28:40.071Z,17.66
2022-10-14T13:31:34.408Z,17.58
2022-10-14T13:34:21.888Z,17.50
2022-10-14T13:37:16.481Z,17.45
2022-10-14T13:39:43.508Z,17.33
2022-10-14T13:42:25.533Z,17.27
2022-10-14T13:44:55.420Z,17.19
2022-10-14T13:47:23.737Z,17.12
2022-10-14T13:49:51.705Z,17.06
2022-10-14T13:52:24.871Z,17.05
2022-10-14T13:55:14.300Z,17.05
2022-10-14T13:58:07.812Z,16.99
2022-10-14T14:00:41.172Z,16.98
2022-10-14T14:03:18.978Z,16.99
2022-10-14T14:05:46.065Z,16.99
2022-10-14T14:08:39.671Z,16.98
2022-10-14T14:11:18.466Z,16.96
2022-10-14T14:13:59.848Z,16.90
2022-10-14T14:16:41.746Z,16.83
2022-10-14T14:19:20.000Z,16.80
2022-10-14T14:21:48.266Z,16.80
2022-10-14T14:24:25.071Z,16.81
2022-10-14T14:26:54.404Z,16.81
2022-10-14T14:29:25.373Z,16.86
2022-10-14T14:32:08.613Z,16.90
2022-10-14T14:34:38.548Z,16.99
2022-10-14T14:40:00.478Z,17.01
2022-10-14T14:42:36.012Z,16.95
2022-10-14T14:45:29.262Z,16.91
2022-10-14T14:48:01.911Z,16.84
2022-10-14T14:50:33.802Z,16.80
2022-10-14T14:53:04.161Z,16.77
2022-10-14T14:56:01.736Z,16.76
2022-10-14T14:58:32.011Z,16.74
2022-10-14T15:00:59.318Z,16.74
2022-10-14T15:03:29.757Z,16.72
2022-10-14T15:06:07.006Z,16.75
2022-10-14T15:08:37.960Z,16.77
2022-10-14T15:11:05.143Z,16.77
2022-10-14T15:13:56.340Z,16.78
2022-10-14T15:16:41.434Z,16.81
2022-10-14T15:19:14.190Z,16.81
2022-10-14T15:21:40.989Z,16.80
2022-10-14T15:24:15.719Z,16.77
2022-10-14T15:26:42.389Z,16.77
2022-10-14T15:32:27.133Z,16.78
2022-10-14T15:34:59.484Z,16.74
2022-10-14T15:37:26.532Z,16.72
2022-10-14T15:40:13.021Z,16.69
2022-10-14T15:42:40.722Z,16.68
2022-10-14T15:45:08.511Z,16.65
2022-10-14T15:47:35.840Z,16.61
2022-10-14T15:50:12.518Z,16.59
2022-10-14T15:52:39.295Z,16.57
2022-10-14T15:55:15.645Z,16.55
2022-10-14T15:57:50.068Z,16.48
2022-10-14T16:00:18.927Z,16.42
2022-10-14T16:02:48.644Z,16.35
2022-10-14T16:05:19.907Z,16.31
2022-10-14T16:07:48.319Z,16.28
2022-10-14T16:10:18.314Z,16.27
2022-10-14T16:12:45.881Z,16.25
2022-10-14T16:15:37.896Z,16.23
2022-10-14T16:18:04.838Z,16.22
2022-10-14T16:20:31.933Z,16.18
2022-10-14T16:22:58.797Z,16.18
2022-10-14T16:25:41.099Z,16.15
2022-10-14T16:28:10.120Z,16.13
2022-10-14T16:30:40.217Z,16.07
2022-10-14T16:33:07.903Z,16.00
2022-10-14T16:35:35.747Z,15.96
2022-10-14T16:38:02.481Z,15.95
2022-10-14T16:40:31.866Z,15.91
2022-10-14T16:43:01.144Z,15.89
2022-10-14T16:45:27.996Z,15.89
2022-10-14T16:47:55.052Z,15.91
2022-10-14T16:50:22.937Z,15.91
2022-10-14T16:53:08.488Z,15.93
2022-10-14T16:55:35.401Z,15.90
2022-10-14T16:58:02.455Z,15.85
2022-10-14T17:00:29.108Z,15.88
2022-10-14T17:02:58.811Z,15.84
2022-10-14T17:05:26.976Z,15.84
2022-10-14T17:07:53.875Z,15.82
2022-10-14T17:10:21.434Z,15.81
2022-10-14T17:12:48.274Z,15.81
2022-10-14T17:15:15.021Z,15.80
2022-10-14T17:17:41.727Z,15.79
2022-10-14T17:20:09.396Z,15.79
2022-10-14T17:22:36.935Z,15.78
2022-10-14T17:25:05.374Z,15.78
2022-10-14T17:27:32.088Z,15.79
2022-10-14T17:29:59.228Z,15.79
2022-10-14T17:32:28.203Z,15.76
2022-10-14T17:34:56.265Z,15.71
2022-10-14T17:37:23.018Z,15.67
2022-10-14T17:39:49.791Z,15.61
2022-10-14T17:42:16.566Z,15.55
2022-10-14T17:44:43.924Z,15.53
2022-10-14T17:47:11.078Z,15.53
2022-10-14T17:49:38.573Z,15.48
2022-10-14T17:52:06.379Z,15.48
2022-10-14T17:54:33.118Z,15.47
2022-10-14T17:57:00.276Z,15.50
2022-10-14T17:59:27.435Z,15.46
2022-10-14T18:02:03.159Z,15.46
2022-10-14T18:04:34.088Z,15.45
2022-10-14T18:07:01.558Z,15.43
2022-10-14T18:09:28.298Z,15.44
2022-10-14T18:12:08.344Z,15.44
2022-10-14T18:14:36.124Z,15.41
2022-10-14T18:17:02.802Z,15.39
2022-10-14T18:19:29.584Z,15.37
2022-10-14T18:21:56.338Z,15.34
2022-10-14T18:24:23.684Z,15.32
2022-10-14T18:26:51.415Z,15.30
2022-10-14T18:29:19.739Z,15.27
2022-10-14T18:31:49.115Z,15.27
2022-10-14T18:34:15.822Z,15.26
2022-10-14T18:36:42.768Z,15.24
2022-10-14T18:39:11.969Z,15.24
2022-10-14T18:41:39.351Z,15.22
2022-10-14T18:44:06.579Z,15.20
2022-10-14T18:46:36.355Z,15.18
2022-10-14T18:49:04.856Z,15.13
2022-10-14T18:51:35.159Z,15.12
2022-10-14T18:54:07.940Z,15.06
2022-10-14T18:56:38.642Z,14.99
2022-10-14T18:59:11.840Z,14.96
2022-10-14T19:01:39.390Z,14.95
2022-10-14T19:04:08.259Z,14.93
2022-10-14T19:06:35.904Z,14.91
2022-10-14T19:09:04.139Z,14.88
2022-10-14T19:11:33.530Z,14.85
2022-10-14T19:14:05.216Z,14.79
2022-10-14T19:16:36.012Z,14.77
2022-10-14T19:19:13.995Z,14.72
2022-10-14T19:21:41.168Z,14.71
2022-10-14T19:24:10.850Z,14.70
2022-10-14T19:26:40.075Z,14.68
2022-10-14T19:29:11.592Z,14.68
2022-10-14T19:31:39.657Z,14.66
2022-10-14T19:34:08.843Z,14.67
2022-10-14T19:36:38.064Z,14.65
2022-10-14T19:39:07.201Z,14.60
2022-10-14T19:41:40.063Z,14.60
2022-10-14T19:44:06.936Z,14.58
2022-10-14T19:46:33.666Z,14.59
2022-10-14T19:49:02.316Z,14.59
2022-10-14T19:51:29.078Z,14.60
2022-10-14T19:53:55.886Z,14.60
2022-10-14T19:56:22.929Z,14.58
2022-10-14T19:58:54.480Z,14.58
2022-10-14T20:01:25.788Z,14.56
2022-10-14T20:03:53.459Z,14.54
2022-10-14T20:06:21.960Z,14.50
2022-10-14T20:08:49.148Z,14.50
2022-10-14T20:11:19.703Z,14.50
2022-10-14T20:13:46.734Z,14.50
2022-10-14T20:16:14.198Z,14.48
2022-10-14T20:18:41.314Z,14.47
2022-10-14T20:21:10.102Z,14.41
2022-10-14T20:23:40.653Z,14.42
2022-10-14T20:26:10.783Z,14.44
2022-10-14T20:28:38.984Z,14.44
2022-10-14T20:31:07.503Z,14.45
2022-10-14T20:33:34.450Z,14.42
2022-10-14T20:36:03.305Z,14.41
2022-10-14T20:38:30.090Z,14.40
2022-10-14T20:41:04.059Z,14.40
2022-10-14T20:43:30.957Z,14.40
2022-10-14T20:45:57.687Z,14.40
2022-10-14T20:48:24.460Z,14.37
2022-10-14T20:50:51.312Z,14.36
2022-10-14T20:53:18.042Z,14.39
2022-10-14T20:55:44.737Z,14.38
2022-10-14T20:58:11.437Z,14.37
2022-10-14T21:00:38.161Z,14.35
2022-10-14T21:03:04.817Z,14.33
2022-10-14T21:05:31.761Z,14.34
2022-10-14T21:07:58.489Z,14.32
2022-10-14T21:10:25.233Z,14.30
2022-10-14T21:12:51.898Z,14.31
2022-10-14T21:15:18.610Z,14.30
2022-10-14T21:17:49.728Z,14.33
2022-10-14T21:20:16.576Z,14.31
2022-10-14T21:22:43.380Z,14.24
2022-10-14T21:25:10.350Z,14.27
2022-10-14T21:27:37.240Z,14.24
2022-10-14T21:30:04.324Z,14.24
2022-10-14T21:32:31.156Z,14.25
2022-10-14T21:34:58.506Z,14.25
2022-10-14T21:37:25.372Z,14.27
2022-10-14T21:39:52.046Z,14.26
2022-10-14T21:42:18.781Z,14.25
2022-10-14T21:44:45.500Z,14.25
2022-10-14T21:47:12.202Z,14.25
2022-10-14T21:49:38.933Z,14.25
2022-10-14T21:52:05.688Z,14.22
2022-10-14T21:54:32.358Z,14.22
2022-10-14T21:56:59.034Z,14.24
2022-10-14T21:59:25.677Z,14.22
2022-10-14T22:01:56.365Z,14.17
2022-10-14T22:04:23.056Z,14.20
2022-10-14T22:06:49.744Z,14.18
2022-10-14T22:09:16.438Z,14.16
2022-10-14T22:11:43.429Z,14.17
2022-10-14T22:14:12.667Z,14.17
2022-10-14T22:16:41.944Z,14.16
2022-10-14T22:19:09.871Z,14.16
2022-10-14T22:21:39.535Z,14.14
2022-10-14T22:26:34.882Z,14.20
2022-10-14T22:29:04.708Z,14.22
2022-10-14T22:31:33.347Z,14.21
2022-10-14T22:34:02.183Z,14.19
2022-10-14T22:36:29.578Z,14.18
2022-10-14T22:38:57.843Z,14.17
2022-10-14T22:41:27.229Z,14.15
2022-10-14T22:43:58.086Z,14.14
2022-10-14T22:46:29.000Z,14.13
2022-10-14T22:48:56.880Z,14.13
2022-10-14T22:51:30.965Z,14.16
2022-10-14T22:53:57.920Z,14.21
2022-10-14T22:56:28.625Z,14.21
2022-10-14T22:59:01.479Z,14.19
2022-10-14T23:01:29.020Z,14.23
2022-10-14T23:03:57.521Z,14.26
2022-10-14T23:06:24.461Z,14.30
2022-10-14T23:08:51.206Z,14.31
2022-10-14T23:11:19.577Z,14.34
2022-10-14T23:13:46.607Z,14.37
2022-10-14T23:16:19.177Z,14.38
2022-10-14T23:18:47.360Z,14.40
2022-10-14T23:21:25.539Z,14.40
2022-10-14T23:23:55.197Z,14.39
2022-10-14T23:26:24.128Z,14.41
2022-10-14T23:28:53.874Z,14.43
2022-10-14T23:31:24.099Z,14.44
2022-10-14T23:33:52.273Z,14.43
2022-10-14T23:36:20.769Z,14.43
2022-10-14T23:38:47.948Z,14.42
2022-10-14T23:41:15.065Z,14.42
2022-10-14T23:43:41.805Z,14.44
2022-10-14T23:46:08.875Z,14.45
2022-10-14T23:48:36.290Z,14.46
2022-10-14T23:51:04.199Z,14.47
2022-10-14T23:53:30.869Z,14.50
2022-10-14T23:55:58.163Z,14.52
2022-10-14T23:58:28.364Z,14.51
